Time;durP1;ratioP1;P1;durP2;ratioP2;P2;SDS_P1;SDS_P2;PMS_P1;PMS_P2;Temp;Humidity;BMP_temperature;BMP_pressure;BME280_temperature;BME280_humidity;BME280_pressure;Samples;Min_cycle;Max_cycle;Signal;HPM_P1;HPM_P2
2022/11/25 00:00:53;;;;;;;;;;;18.80;63.90;;;;;;5041295;28;1166;-69
2022/11/25 00:03:18;;;;;;;;;;;18.80;64.00;;;;;;5043932;28;911;-69
2022/11/25 00:05:46;;;;;;;;;;;18.80;64.00;;;;;;5038789;28;828;-68
2022/11/25 00:08:11;;;;;;;;;;;18.80;64.00;;;;;;5042713;28;1264;-68
2022/11/25 00:10:37;;;;;;;;;;;18.80;64.00;;;;;;5040114;28;851;-68
2022/11/25 00:13:02;;;;;;;;;;;18.80;64.00;;;;;;5041740;28;1938;-69
2022/11/25 00:15:28;;;;;;;;;;;18.80;64.10;;;;;;5041880;28;1345;-68
2022/11/25 00:17:53;;;;;;;;;;;18.80;64.10;;;;;;5042383;28;1371;-69
2022/11/25 00:20:20;;;;;;;;;;;18.80;64.10;;;;;;5037144;28;914;-68
2022/11/25 00:22:45;;;;;;;;;;;18.80;64.10;;;;;;5037641;28;927;-68
2022/11/25 00:25:11;;;;;;;;;;;18.80;64.10;;;;;;5039702;28;907;-68
2022/11/25 00:27:36;;;;;;;;;;;18.80;64.20;;;;;;5038503;28;1481;-68
2022/11/25 00:30:02;;;;;;;;;;;18.80;64.20;;;;;;5041758;28;893;-68
2022/11/25 00:32:27;;;;;;;;;;;18.80;64.20;;;;;;5039972;28;2019;-69
2022/11/25 00:34:53;;;;;;;;;;;18.80;64.20;;;;;;5038120;28;1183;-68
2022/11/25 00:37:18;;;;;;;;;;;18.80;64.20;;;;;;5042442;28;1326;-69
2022/11/25 00:39:44;;;;;;;;;;;18.80;64.20;;;;;;5041389;28;876;-69
2022/11/25 00:44:53;;;;;;;;;;;18.70;64.90;;;;;;5043801;28;816;-69
2022/11/25 00:47:19;;;;;;;;;;;18.80;64.20;;;;;;5041144;28;1264;-69
2022/11/25 00:49:45;;;;;;;;;;;18.70;64.20;;;;;;5026117;28;903;-69
2022/11/25 00:52:18;;;;;;;;;;;18.80;64.30;;;;;;5040968;28;777;-69
2022/11/25 00:54:43;;;;;;;;;;;18.80;64.30;;;;;;5038272;28;1280;-69
2022/11/25 00:57:09;;;;;;;;;;;18.80;64.30;;;;;;5021323;28;1347;-69
2022/11/25 00:59:35;;;;;;;;;;;18.70;64.20;;;;;;5039489;28;903;-69
2022/11/25 01:02:00;;;;;;;;;;;18.70;64.20;;;;;;5040771;28;876;-69
2022/11/25 01:04:26;;;;;;;;;;;18.70;64.30;;;;;;5035865;28;812;-69
2022/11/25 01:06:52;;;;;;;;;;;18.70;64.30;;;;;;5041707;28;824;-69
2022/11/25 01:09:18;;;;;;;;;;;18.70;64.30;;;;;;5038532;28;1288;-68
2022/11/25 01:11:44;;;;;;;;;;;18.70;64.30;;;;;;5039742;28;899;-67
2022/11/25 01:14:09;;;;;;;;;;;18.70;64.30;;;;;;5039617;28;1899;-68
2022/11/25 01:16:35;;;;;;;;;;;18.70;64.30;;;;;;5040787;28;808;-67
2022/11/25 01:19:00;;;;;;;;;;;18.70;64.30;;;;;;5043535;28;1355;-68
2022/11/25 01:21:27;;;;;;;;;;;18.70;64.30;;;;;;5041905;28;892;-68
2022/11/25 01:23:52;;;;;;;;;;;18.70;64.40;;;;;;5039175;28;867;-68
2022/11/25 01:26:21;;;;;;;;;;;18.70;64.40;;;;;;5038458;28;1022;-68
2022/11/25 01:28:47;;;;;;;;;;;18.70;64.30;;;;;;5039302;28;1275;-68
2022/11/25 01:31:16;;;;;;;;;;;18.70;64.40;;;;;;5023491;28;846;-67
2022/11/25 01:33:42;;;;;;;;;;;18.70;64.40;;;;;;5039645;28;1993;-68
2022/11/25 01:36:15;;;;;;;;;;;18.70;64.40;;;;;;5022538;28;884;-68
2022/11/25 01:38:40;;;;;;;;;;;18.70;64.40;;;;;;5040845;28;1389;-68
2022/11/25 01:41:06;;;;;;;;;;;18.70;64.40;;;;;;5035619;28;1260;-69
2022/11/25 01:43:32;;;;;;;;;;;18.70;64.40;;;;;;5042070;28;1022;-69
2022/11/25 01:46:04;;;;;;;;;;;18.70;64.40;;;;;;5041656;28;849;-67
2022/11/25 01:48:41;;;;;;;;;;;18.70;64.40;;;;;;5039785;28;1268;-67
2022/11/25 01:51:11;;;;;;;;;;;18.70;64.40;;;;;;5038079;28;927;-68
2022/11/25 01:53:36;;;;;;;;;;;18.70;64.50;;;;;;5030609;28;1967;-68
2022/11/25 01:56:02;;;;;;;;;;;18.70;64.40;;;;;;5038059;28;1529;-68
2022/11/25 01:58:28;;;;;;;;;;;18.70;64.50;;;;;;5039654;28;1354;-67
2022/11/25 02:00:54;;;;;;;;;;;18.70;64.50;;;;;;5037647;28;844;-69
2022/11/25 02:03:23;;;;;;;;;;;18.70;64.50;;;;;;5038083;28;887;-69
2022/11/25 02:06:03;;;;;;;;;;;18.70;64.50;;;;;;5020632;28;887;-69
2022/11/25 02:08:29;;;;;;;;;;;18.70;64.50;;;;;;5035858;28;1367;-70
2022/11/25 02:10:54;;;;;;;;;;;18.60;64.40;;;;;;5039698;28;1050;-67
2022/11/25 02:13:20;;;;;;;;;;;18.70;64.50;;;;;;5043199;28;1895;-67
2022/11/25 02:15:45;;;;;;;;;;;18.60;65.20;;;;;;5040529;28;1366;-67
2022/11/25 02:18:11;;;;;;;;;;;18.70;64.50;;;;;;5038919;28;1363;-67
2022/11/25 02:20:37;;;;;;;;;;;18.60;64.50;;;;;;5023007;28;880;-67
2022/11/25 02:23:06;;;;;;;;;;;18.70;64.60;;;;;;5041806;28;1336;-67
2022/11/25 02:25:35;;;;;;;;;;;18.70;64.60;;;;;;5024594;28;934;-67
2022/11/25 02:28:12;;;;;;;;;;;18.60;64.50;;;;;;5020418;28;1280;-67
2022/11/25 02:30:37;;;;;;;;;;;18.60;64.60;;;;;;5012870;28;1402;-67
2022/11/25 02:33:03;;;;;;;;;;;18.60;64.50;;;;;;5037671;28;1921;-68
2022/11/25 02:35:30;;;;;;;;;;;18.60;64.50;;;;;;5034510;28;943;-69
2022/11/25 02:37:57;;;;;;;;;;;18.70;64.60;;;;;;5033789;28;1264;-68
2022/11/25 02:40:23;;;;;;;;;;;18.60;64.50;;;;;;5038871;28;927;-68
2022/11/25 02:42:48;;;;;;;;;;;18.60;64.50;;;;;;5020138;28;946;-68
2022/11/25 02:45:14;;;;;;;;;;;18.70;64.60;;;;;;5039438;28;943;-66
2022/11/25 02:47:39;;;;;;;;;;;18.60;64.60;;;;;;5029374;28;1371;-68
2022/11/25 02:50:05;;;;;;;;;;;18.60;64.60;;;;;;5036682;28;912;-68
2022/11/25 02:52:30;;;;;;;;;;;18.70;64.60;;;;;;5037494;28;1905;-69
2022/11/25 02:54:56;;;;;;;;;;;18.60;64.60;;;;;;5036505;28;1162;-68
2022/11/25 02:57:21;;;;;;;;;;;18.70;64.60;;;;;;5038122;28;1272;-68
2022/11/25 02:59:47;;;;;;;;;;;18.70;64.70;;;;;;5034711;28;868;-69
2022/11/25 03:02:12;;;;;;;;;;;18.60;64.60;;;;;;5037978;28;870;-68
2022/11/25 03:04:38;;;;;;;;;;;18.60;64.60;;;;;;5037736;28;885;-69
2022/11/25 03:07:03;;;;;;;;;;;18.60;64.60;;;;;;5037633;28;1237;-68
2022/11/25 03:09:29;;;;;;;;;;;18.60;64.60;;;;;;5036876;28;913;-70
2022/11/25 03:14:38;;;;;;;;;;;18.60;64.60;;;;;;5040757;28;1956;-69
2022/11/25 03:17:04;;;;;;;;;;;18.60;64.70;;;;;;5037940;28;1276;-68
2022/11/25 03:19:29;;;;;;;;;;;18.60;64.70;;;;;;5039895;28;917;-68
2022/11/25 03:21:54;;;;;;;;;;;18.60;64.70;;;;;;5043568;28;1042;-68
2022/11/25 03:24:20;;;;;;;;;;;18.60;64.60;;;;;;5045109;28;907;-69
2022/11/25 03:26:45;;;;;;;;;;;18.60;64.70;;;;;;5042171;28;949;-69
2022/11/25 03:29:11;;;;;;;;;;;18.60;64.70;;;;;;5041640;28;1334;-69
2022/11/25 03:31:36;;;;;;;;;;;18.60;64.70;;;;;;5032486;28;1081;-69
2022/11/25 03:34:02;;;;;;;;;;;18.60;64.70;;;;;;5040281;28;1975;-69
2022/11/25 03:36:27;;;;;;;;;;;18.60;64.70;;;;;;5040913;28;936;-69
2022/11/25 03:38:53;;;;;;;;;;;18.60;64.70;;;;;;5040950;28;1367;-69
2022/11/25 03:41:18;;;;;;;;;;;18.60;64.70;;;;;;5039083;28;884;-69
2022/11/25 03:43:44;;;;;;;;;;;18.60;64.70;;;;;;5042111;28;853;-69
2022/11/25 03:46:10;;;;;;;;;;;18.60;64.70;;;;;;5043192;28;875;-69
2022/11/25 03:48:35;;;;;;;;;;;18.60;64.70;;;;;;5041684;28;1319;-69
2022/11/25 03:51:01;;;;;;;;;;;18.60;64.70;;;;;;5037838;28;808;-69
2022/11/25 03:53:26;;;;;;;;;;;18.60;64.80;;;;;;5039464;28;1960;-69
2022/11/25 03:55:52;;;;;;;;;;;18.60;64.80;;;;;;5041233;28;1002;-69
2022/11/25 03:58:17;;;;;;;;;;;18.60;64.80;;;;;;5042775;28;1344;-69
2022/11/25 04:00:43;;;;;;;;;;;18.60;64.80;;;;;;5041592;28;903;-68
2022/11/25 04:03:08;;;;;;;;;;;18.60;64.80;;;;;;5043347;28;912;-69
2022/11/25 04:05:34;;;;;;;;;;;18.60;64.80;;;;;;5043661;28;870;-68
2022/11/25 04:07:59;;;;;;;;;;;18.60;64.80;;;;;;5038428;28;1366;-69
2022/11/25 04:10:24;;;;;;;;;;;18.60;64.80;;;;;;5040673;28;1262;-68
2022/11/25 04:12:51;;;;;;;;;;;18.60;64.80;;;;;;5040575;28;1961;-68
2022/11/25 04:15:17;;;;;;;;;;;18.60;64.80;;;;;;5041692;28;1370;-68
2022/11/25 04:17:42;;;;;;;;;;;18.60;64.80;;;;;;5042041;28;1270;-68
2022/11/25 04:20:08;;;;;;;;;;;18.50;64.80;;;;;;5028439;28;1011;-68
2022/11/25 04:22:33;;;;;;;;;;;18.50;64.80;;;;;;5044135;28;872;-70
2022/11/25 04:24:59;;;;;;;;;;;18.50;64.80;;;;;;5039797;28;1433;-68
2022/11/25 04:27:25;;;;;;;;;;;18.50;64.80;;;;;;5039372;28;1280;-68
2022/11/25 04:29:50;;;;;;;;;;;18.60;64.80;;;;;;5040822;28;1364;-68
2022/11/25 04:32:16;;;;;;;;;;;18.60;64.90;;;;;;5040548;28;805;-68
2022/11/25 04:34:41;;;;;;;;;;;18.50;64.80;;;;;;5021096;28;1930;-69
2022/11/25 04:37:06;;;;;;;;;;;18.50;64.80;;;;;;5042251;28;1225;-69
2022/11/25 04:39:32;;;;;;;;;;;18.60;64.90;;;;;;5038350;28;892;-69
2022/11/25 04:44:41;;;;;;;;;;;18.60;64.90;;;;;;5041242;28;806;-67
2022/11/25 04:47:07;;;;;;;;;;;18.60;64.90;;;;;;5043652;28;1295;-67
2022/11/25 04:49:32;;;;;;;;;;;18.60;64.90;;;;;;5041277;28;912;-67
2022/11/25 04:51:58;;;;;;;;;;;18.50;64.90;;;;;;5037458;28;998;-67
2022/11/25 04:54:23;;;;;;;;;;;18.50;64.90;;;;;;5026320;28;1963;-67
2022/11/25 04:56:48;;;;;;;;;;;18.50;64.90;;;;;;5041066;28;923;-67
2022/11/25 05:01:58;;;;;;;;;;;18.50;64.90;;;;;;5038937;28;1077;-67
2022/11/25 05:04:24;;;;;;;;;;;18.50;64.90;;;;;;5038934;28;918;-67
2022/11/25 05:06:50;;;;;;;;;;;18.50;64.90;;;;;;5020082;28;1066;-66
2022/11/25 05:09:16;;;;;;;;;;;18.50;64.90;;;;;;5039806;28;1197;-67
2022/11/25 05:11:41;;;;;;;;;;;18.50;64.90;;;;;;5038666;28;951;-67
2022/11/25 05:14:07;;;;;;;;;;;18.50;64.90;;;;;;5032435;28;1968;-67
2022/11/25 05:16:32;;;;;;;;;;;18.50;64.80;;;;;;5040477;28;815;-67
2022/11/25 05:18:58;;;;;;;;;;;18.60;64.80;;;;;;5021941;28;1264;-68
2022/11/25 05:21:23;;;;;;;;;;;18.60;64.80;;;;;;5039043;28;1081;-68
2022/11/25 05:23:49;;;;;;;;;;;18.60;64.60;;;;;;5037552;28;875;-69
2022/11/25 05:26:14;;;;;;;;;;;18.60;64.60;;;;;;5041563;28;937;-69
2022/11/25 05:28:40;;;;;;;;;;;18.70;64.50;;;;;;5040565;28;1303;-70
2022/11/25 05:31:05;;;;;;;;;;;18.70;64.40;;;;;;5037837;28;773;-69
2022/11/25 05:33:31;;;;;;;;;;;18.70;64.30;;;;;;5044241;28;1906;-69
2022/11/25 05:35:57;;;;;;;;;;;18.70;64.20;;;;;;5024429;28;804;-70
2022/11/25 05:38:22;;;;;;;;;;;18.80;64.20;;;;;;5021532;28;1252;-71
2022/11/25 05:40:48;;;;;;;;;;;18.80;64.10;;;;;;5038086;28;867;-71
2022/11/25 05:43:13;;;;;;;;;;;18.80;64.00;;;;;;5038429;28;848;-71
2022/11/25 05:45:39;;;;;;;;;;;18.80;64.00;;;;;;5042229;28;1254;-69
2022/11/25 05:48:04;;;;;;;;;;;18.80;63.90;;;;;;5040937;28;1276;-69
2022/11/25 05:50:30;;;;;;;;;;;18.80;63.90;;;;;;5036326;28;879;-69
2022/11/25 05:52:55;;;;;;;;;;;18.90;63.80;;;;;;5036859;28;1902;-70
2022/11/25 05:55:21;;;;;;;;;;;18.90;63.80;;;;;;5030056;28;833;-68
2022/11/25 05:57:46;;;;;;;;;;;18.90;63.80;;;;;;5038075;28;1323;-69
2022/11/25 06:00:12;;;;;;;;;;;18.90;63.70;;;;;;5038921;28;877;-68
2022/11/25 06:02:37;;;;;;;;;;;18.90;63.70;;;;;;5034959;28;1452;-69
2022/11/25 06:05:03;;;;;;;;;;;18.90;63.70;;;;;;5036331;28;884;-69
2022/11/25 06:07:28;;;;;;;;;;;18.90;63.60;;;;;;5039968;28;1284;-69
2022/11/25 06:09:54;;;;;;;;;;;18.90;63.60;;;;;;5026324;28;867;-69
2022/11/25 06:12:20;;;;;;;;;;;18.90;63.60;;;;;;5043440;28;966;-69
2022/11/25 06:14:45;;;;;;;;;;;19.00;63.60;;;;;;5031280;28;1950;-69
2022/11/25 06:17:11;;;;;;;;;;;19.00;63.50;;;;;;5036073;28;1256;-69
2022/11/25 06:19:36;;;;;;;;;;;19.00;63.40;;;;;;5039522;28;932;-69
2022/11/25 06:22:01;;;;;;;;;;;19.00;63.30;;;;;;5039331;28;804;-70
2022/11/25 06:24:27;;;;;;;;;;;19.00;63.20;;;;;;5039365;28;888;-69
2022/11/25 06:26:52;;;;;;;;;;;19.10;63.20;;;;;;5039870;28;816;-69
2022/11/25 06:29:18;;;;;;;;;;;19.00;63.20;;;;;;5041330;28;1294;-68
2022/11/25 06:31:43;;;;;;;;;;;19.10;63.20;;;;;;5043774;28;872;-68
2022/11/25 06:34:09;;;;;;;;;;;19.10;63.10;;;;;;5038647;28;1926;-68
2022/11/25 06:36:34;;;;;;;;;;;19.10;63.00;;;;;;5037335;28;1268;-68
2022/11/25 06:39:00;;;;;;;;;;;19.10;63.00;;;;;;5033450;28;1876;-67
2022/11/25 06:41:25;;;;;;;;;;;19.10;63.00;;;;;;5038719;28;2159;-69
2022/11/25 06:43:51;;;;;;;;;;;19.10;63.00;;;;;;5039833;28;1474;-69
2022/11/25 06:46:17;;;;;;;;;;;19.10;62.90;;;;;;5039157;28;881;-68
2022/11/25 06:48:42;;;;;;;;;;;19.10;62.90;;;;;;5038183;28;1959;-70
2022/11/25 06:51:09;;;;;;;;;;;19.10;62.90;;;;;;5037759;28;1312;-71
2022/11/25 06:53:35;;;;;;;;;;;19.20;63.00;;;;;;5036818;28;1906;-71
2022/11/25 06:56:11;;;;;;;;;;;19.10;62.90;;;;;;5040908;28;898;-70
2022/11/25 06:58:36;;;;;;;;;;;19.20;62.90;;;;;;5041111;28;1383;-67
2022/11/25 07:01:06;;;;;;;;;;;19.10;62.80;;;;;;5040796;28;890;-68
2022/11/25 07:03:31;;;;;;;;;;;19.20;62.90;;;;;;5034063;28;953;-69
2022/11/25 07:05:57;;;;;;;;;;;19.10;62.80;;;;;;5030586;28;4450;-69
2022/11/25 07:08:23;;;;;;;;;;;19.20;62.90;;;;;;5025357;28;4353;-69
2022/11/25 07:10:49;;;;;;;;;;;19.20;62.90;;;;;;5041315;28;780;-69
2022/11/25 07:13:14;;;;;;;;;;;19.10;62.80;;;;;;5043662;28;1977;-69
2022/11/25 07:15:40;;;;;;;;;;;19.10;62.80;;;;;;5042638;28;1353;-69
2022/11/25 07:18:05;;;;;;;;;;;19.20;62.80;;;;;;5041292;28;1252;-70
2022/11/25 07:20:31;;;;;;;;;;;19.10;62.80;;;;;;5041721;28;1030;-68
2022/11/25 07:22:57;;;;;;;;;;;19.20;62.90;;;;;;5045298;28;788;-68
2022/11/25 07:25:22;;;;;;;;;;;19.20;62.80;;;;;;5041355;28;861;-67
2022/11/25 07:27:48;;;;;;;;;;;19.20;62.80;;;;;;5042408;28;1299;-68
2022/11/25 07:30:14;;;;;;;;;;;19.20;62.90;;;;;;5040216;28;1038;-67
2022/11/25 07:32:39;;;;;;;;;;;19.20;62.80;;;;;;5027100;28;1909;-67
2022/11/25 07:35:05;;;;;;;;;;;19.20;63.70;;;;;;5023141;28;1133;-67
2022/11/25 07:37:30;;;;;;;;;;;19.10;62.80;;;;;;5042067;28;1305;-67
2022/11/25 07:39:56;;;;;;;;;;;19.20;62.90;;;;;;5044920;28;969;-67
2022/11/25 07:42:21;;;;;;;;;;;19.20;62.90;;;;;;5042149;28;867;-68
2022/11/25 07:44:47;;;;;;;;;;;19.10;62.80;;;;;;5039745;28;876;-68
2022/11/25 07:47:13;;;;;;;;;;;19.20;62.90;;;;;;5025250;28;1362;-71
2022/11/25 07:49:38;;;;;;;;;;;19.20;62.90;;;;;;5041920;28;1026;-71
2022/11/25 07:52:04;;;;;;;;;;;19.10;62.90;;;;;;5041433;28;871;-68
2022/11/25 07:54:30;;;;;;;;;;;19.20;63.00;;;;;;5037168;28;1962;-68
2022/11/25 07:56:55;;;;;;;;;;;19.20;63.00;;;;;;5044689;28;853;-67
2022/11/25 07:59:21;;;;;;;;;;;19.10;62.90;;;;;;5042492;28;1197;-67
2022/11/25 08:01:50;;;;;;;;;;;19.20;63.00;;;;;;5042240;28;797;-67
2022/11/25 08:04:16;;;;;;;;;;;19.10;63.00;;;;;;5032132;28;824;-68
2022/11/25 08:06:42;;;;;;;;;;;19.10;63.00;;;;;;5038238;28;878;-68
2022/11/25 08:09:08;;;;;;;;;;;19.10;63.00;;;;;;5027954;28;1367;-68
2022/11/25 08:11:33;;;;;;;;;;;19.10;63.10;;;;;;5042451;28;987;-67
2022/11/25 08:13:59;;;;;;;;;;;19.10;63.10;;;;;;5041202;28;1898;-67
2022/11/25 08:16:28;;;;;;;;;;;19.10;63.00;;;;;;5037728;28;1085;-67
2022/11/25 08:18:54;;;;;;;;;;;19.10;63.10;;;;;;5039947;28;1305;-67
2022/11/25 08:21:19;;;;;;;;;;;19.10;63.10;;;;;;5040151;28;920;-67
2022/11/25 08:23:47;;;;;;;;;;;19.10;63.10;;;;;;5042184;28;882;-67
2022/11/25 08:26:14;;;;;;;;;;;19.10;63.10;;;;;;5022912;28;801;-67
2022/11/25 08:28:40;;;;;;;;;;;19.10;63.10;;;;;;5041329;28;1516;-68
2022/11/25 08:31:09;;;;;;;;;;;19.10;63.20;;;;;;5021519;28;829;-68
2022/11/25 08:33:35;;;;;;;;;;;19.10;63.20;;;;;;5044705;28;1963;-68
2022/11/25 08:36:00;;;;;;;;;;;19.10;63.20;;;;;;5041534;28;903;-69
2022/11/25 08:38:26;;;;;;;;;;;19.10;63.20;;;;;;5040044;28;1272;-69
2022/11/25 08:40:52;;;;;;;;;;;19.10;63.20;;;;;;5042055;28;874;-68
2022/11/25 08:43:18;;;;;;;;;;;19.10;63.20;;;;;;5028762;28;844;-68
2022/11/25 08:45:44;;;;;;;;;;;19.10;63.20;;;;;;5044053;28;840;-68
2022/11/25 08:48:09;;;;;;;;;;;19.10;63.20;;;;;;5039096;28;1264;-68
2022/11/25 08:50:35;;;;;;;;;;;19.10;63.20;;;;;;5036454;28;1019;-68
2022/11/25 08:53:01;;;;;;;;;;;19.10;63.20;;;;;;5024215;28;1906;-68
2022/11/25 08:55:27;;;;;;;;;;;19.10;63.20;;;;;;5038842;28;816;-68
2022/11/25 08:57:52;;;;;;;;;;;19.10;63.20;;;;;;5040639;28;1319;-68
2022/11/25 09:00:18;;;;;;;;;;;19.10;63.20;;;;;;5031526;28;884;-68
2022/11/25 09:02:44;;;;;;;;;;;19.10;63.20;;;;;;5022311;28;903;-68
2022/11/25 09:05:10;;;;;;;;;;;19.10;63.10;;;;;;5039312;28;864;-69
2022/11/25 09:07:35;;;;;;;;;;;19.10;63.10;;;;;;5040122;28;1288;-68
2022/11/25 09:10:01;;;;;;;;;;;19.10;63.10;;;;;;5041958;28;905;-69
2022/11/25 09:12:26;;;;;;;;;;;19.10;63.10;;;;;;5039386;28;813;-70
2022/11/25 09:14:52;;;;;;;;;;;19.10;63.10;;;;;;5038480;28;1895;-67
2022/11/25 09:17:17;;;;;;;;;;;19.10;63.10;;;;;;5040843;28;1354;-67
2022/11/25 09:19:43;;;;;;;;;;;19.10;63.10;;;;;;5040745;28;955;-67
2022/11/25 09:22:08;;;;;;;;;;;19.10;63.00;;;;;;5039535;28;844;-67
2022/11/25 09:24:34;;;;;;;;;;;19.10;63.00;;;;;;5040438;28;882;-69
2022/11/25 09:27:00;;;;;;;;;;;19.10;63.00;;;;;;5041365;28;891;-69
2022/11/25 09:29:26;;;;;;;;;;;19.20;63.10;;;;;;5039276;28;1352;-69
2022/11/25 09:31:52;;;;;;;;;;;19.10;63.00;;;;;;5039802;28;906;-69
2022/11/25 09:34:17;;;;;;;;;;;19.20;63.00;;;;;;5040622;28;1967;-69
2022/11/25 09:36:43;;;;;;;;;;;19.20;63.00;;;;;;5039768;28;879;-68
2022/11/25 09:39:08;;;;;;;;;;;19.20;63.00;;;;;;5037999;28;1331;-69
2022/11/25 09:47:33;;;;;;;;;;;19.20;63.00;;;;;;5039659;28;1304;-69
2022/11/25 09:50:08;;;;;;;;;;;19.10;63.00;;;;;;5041383;28;916;-69
2022/11/25 09:52:52;;;;;;;;;;;19.10;63.00;;;;;;5036025;28;1922;-69
2022/11/25 09:55:22;;;;;;;;;;;19.10;63.00;;;;;;5037748;28;2145;-68
2022/11/25 09:57:48;;;;;;;;;;;19.10;62.90;;;;;;5039464;28;2126;-69
2022/11/25 10:00:15;;;;;;;;;;;19.10;63.00;;;;;;5038584;28;1248;-69
2022/11/25 10:02:42;;;;;;;;;;;19.20;63.00;;;;;;5040495;28;865;-68
2022/11/25 10:05:24;;;;;;;;;;;19.20;63.00;;;;;;5036826;28;835;-68
2022/11/25 10:07:51;;;;;;;;;;;19.20;63.00;;;;;;5025510;28;1378;-69
2022/11/25 10:10:24;;;;;;;;;;;19.20;63.00;;;;;;5021123;28;923;-69
2022/11/25 10:12:50;;;;;;;;;;;19.20;63.00;;;;;;5038406;28;1985;-69
2022/11/25 10:15:31;;;;;;;;;;;19.10;62.90;;;;;;5021851;28;1437;-69
2022/11/25 10:17:57;;;;;;;;;;;19.20;63.00;;;;;;5039512;28;1241;-70
2022/11/25 10:20:24;;;;;;;;;;;19.10;62.90;;;;;;5021160;28;955;-68
2022/11/25 10:22:53;;;;;;;;;;;19.20;63.00;;;;;;5040003;28;872;-69
2022/11/25 10:25:45;;;;;;;;;;;19.20;63.00;;;;;;5042201;28;994;-69
2022/11/25 10:28:14;;;;;;;;;;;19.20;63.00;;;;;;5036378;28;1343;-69
2022/11/25 10:30:57;;;;;;;;;;;19.20;63.00;;;;;;5040129;28;1325;-68
2022/11/25 10:33:33;;;;;;;;;;;19.20;63.00;;;;;;5035621;28;1942;-68
2022/11/25 10:36:17;;;;;;;;;;;19.20;63.00;;;;;;5041851;28;1351;-68
2022/11/25 10:38:44;;;;;;;;;;;19.20;63.00;;;;;;5038664;28;1284;-68
2022/11/25 10:41:12;;;;;;;;;;;19.20;63.10;;;;;;5039269;28;903;-68
2022/11/25 10:43:37;;;;;;;;;;;19.20;63.00;;;;;;5035859;28;1921;-69
2022/11/25 10:46:05;;;;;;;;;;;19.10;62.90;;;;;;5019390;28;1510;-69
2022/11/25 10:48:34;;;;;;;;;;;19.10;63.00;;;;;;5042070;28;1857;-69
2022/11/25 10:51:08;;;;;;;;;;;19.20;63.10;;;;;;5038752;28;2098;-68
2022/11/25 10:53:34;;;;;;;;;;;19.20;63.00;;;;;;5020459;28;2179;-68
2022/11/25 10:56:00;;;;;;;;;;;19.20;63.00;;;;;;5034632;28;1480;-68
2022/11/25 10:58:26;;;;;;;;;;;19.20;63.00;;;;;;5037181;28;1386;-68
2022/11/25 11:01:00;;;;;;;;;;;19.20;63.00;;;;;;5038707;28;727;-68
2022/11/25 11:03:25;;;;;;;;;;;19.20;63.00;;;;;;5039470;28;824;-68
2022/11/25 11:05:51;;;;;;;;;;;19.20;63.10;;;;;;5039344;28;920;-68
2022/11/25 11:08:21;;;;;;;;;;;19.20;63.10;;;;;;5039197;28;1296;-68
2022/11/25 11:10:46;;;;;;;;;;;19.20;63.10;;;;;;5037570;28;854;-68
2022/11/25 11:13:25;;;;;;;;;;;19.10;63.10;;;;;;5033955;28;1906;-69
2022/11/25 11:15:50;;;;;;;;;;;19.10;63.10;;;;;;5037757;28;911;-70
2022/11/25 11:18:20;;;;;;;;;;;19.10;63.10;;;;;;5024715;28;1284;-68
2022/11/25 11:20:46;;;;;;;;;;;19.10;63.10;;;;;;5037639;28;1025;-68
2022/11/25 11:23:12;;;;;;;;;;;19.10;63.10;;;;;;5023135;28;1001;-69
2022/11/25 11:25:39;;;;;;;;;;;19.10;63.10;;;;;;5035665;28;1264;-68
2022/11/25 11:28:23;;;;;;;;;;;19.10;63.10;;;;;;5028697;28;1347;-69
2022/11/25 11:31:11;;;;;;;;;;;19.10;63.10;;;;;;5035765;28;1450;-70
2022/11/25 11:33:42;;;;;;;;;;;19.10;63.10;;;;;;5028653;28;1906;-69
2022/11/25 11:36:10;;;;;;;;;;;19.10;63.20;;;;;;5028994;28;811;-68
2022/11/25 11:38:36;;;;;;;;;;;19.10;63.20;;;;;;5023733;28;1339;-69
2022/11/25 11:41:12;;;;;;;;;;;19.10;63.20;;;;;;5036459;28;804;-70
2022/11/25 11:43:45;;;;;;;;;;;19.10;63.20;;;;;;5040495;28;931;-69
2022/11/25 11:46:18;;;;;;;;;;;19.10;63.20;;;;;;5043144;28;882;-70
2022/11/25 11:48:43;;;;;;;;;;;19.10;63.10;;;;;;5040682;28;1280;-70
2022/11/25 11:51:27;;;;;;;;;;;19.10;63.10;;;;;;5044708;28;811;-70
2022/11/25 11:53:59;;;;;;;;;;;19.10;63.20;;;;;;5039749;28;1902;-70
2022/11/25 11:56:31;;;;;;;;;;;19.10;63.20;;;;;;5040677;28;947;-69
2022/11/25 11:59:15;;;;;;;;;;;19.10;63.20;;;;;;5039771;28;1332;-69
2022/11/25 12:01:46;;;;;;;;;;;19.10;63.20;;;;;;5032623;28;898;-70
2022/11/25 12:04:13;;;;;;;;;;;19.10;63.20;;;;;;5039030;28;934;-71
2022/11/25 12:06:39;;;;;;;;;;;19.10;63.10;;;;;;5039595;28;851;-69
2022/11/25 12:09:09;;;;;;;;;;;19.10;63.20;;;;;;5023255;28;1335;-69
2022/11/25 12:11:36;;;;;;;;;;;19.10;63.20;;;;;;5023865;28;1160;-69
2022/11/25 12:14:03;;;;;;;;;;;19.10;63.10;;;;;;5026946;28;1910;-69
2022/11/25 12:16:39;;;;;;;;;;;19.10;63.10;;;;;;5030654;28;1221;-69
2022/11/25 12:19:15;;;;;;;;;;;19.10;63.20;;;;;;5038491;28;1280;-69
2022/11/25 12:21:44;;;;;;;;;;;19.10;63.20;;;;;;5032593;28;950;-69
2022/11/25 12:24:09;;;;;;;;;;;19.10;63.10;;;;;;5041847;28;813;-69
2022/11/25 12:26:41;;;;;;;;;;;19.10;63.10;;;;;;5041175;28;1093;-69
2022/11/25 12:29:08;;;;;;;;;;;19.10;63.20;;;;;;5042852;28;1266;-68
2022/11/25 12:31:38;;;;;;;;;;;19.10;63.20;;;;;;5045136;28;868;-70
2022/11/25 12:34:09;;;;;;;;;;;19.10;63.10;;;;;;5032361;28;1977;-70
2022/11/25 12:36:36;;;;;;;;;;;19.10;63.10;;;;;;5043293;28;1375;-69
2022/11/25 12:39:20;;;;;;;;;;;19.10;63.10;;;;;;5042112;28;1379;-68
2022/11/25 12:42:01;;;;;;;;;;;19.10;63.10;;;;;;5043196;28;1202;-68
2022/11/25 12:44:45;;;;;;;;;;;19.10;63.10;;;;;;5041479;28;1012;-68
2022/11/25 12:47:11;;;;;;;;;;;19.10;63.10;;;;;;5041460;28;1398;-68
2022/11/25 12:49:41;;;;;;;;;;;19.10;63.10;;;;;;5042199;28;1575;-68
2022/11/25 12:52:25;;;;;;;;;;;19.10;63.10;;;;;;5024662;28;1365;-68
2022/11/25 12:54:50;;;;;;;;;;;19.10;63.10;;;;;;5044255;28;1971;-68
2022/11/25 12:57:30;;;;;;;;;;;19.10;63.10;;;;;;5041399;28;1300;-68
2022/11/25 12:59:58;;;;;;;;;;;19.10;63.10;;;;;;5044254;28;1259;-68
2022/11/25 13:02:27;;;;;;;;;;;19.10;63.10;;;;;;5040660;28;1407;-68
2022/11/25 13:04:58;;;;;;;;;;;19.10;63.10;;;;;;5040358;28;1070;-68
2022/11/25 13:07:25;;;;;;;;;;;19.10;63.40;;;;;;5041191;28;1292;-68
2022/11/25 13:09:54;;;;;;;;;;;19.10;63.60;;;;;;5043440;28;828;-68
2022/11/25 13:12:34;;;;;;;;;;;19.20;63.40;;;;;;5041010;28;836;-68
2022/11/25 13:15:10;;;;;;;;;;;19.20;63.20;;;;;;5036503;28;1910;-68
2022/11/25 13:17:39;;;;;;;;;;;19.20;63.20;;;;;;5028736;28;1521;-68
2022/11/25 13:20:24;;;;;;;;;;;19.10;63.10;;;;;;5043149;28;1399;-68
2022/11/25 13:23:21;;;;;;;;;;;19.10;63.10;;;;;;5031008;28;2329;-68
2022/11/25 13:25:47;;;;;;;;;;;19.20;63.20;;;;;;5028636;28;1556;-67
2022/11/25 13:28:28;;;;;;;;;;;19.20;63.20;;;;;;5040948;28;1442;-68
2022/11/25 13:30:53;;;;;;;;;;;19.20;63.30;;;;;;5039852;28;1312;-67
2022/11/25 13:33:22;;;;;;;;;;;19.10;64.00;;;;;;5040155;28;1898;-68
2022/11/25 13:35:53;;;;;;;;;;;19.10;63.20;;;;;;5043557;28;1317;-69
2022/11/25 13:38:28;;;;;;;;;;;19.10;63.30;;;;;;5037092;28;1522;-68
2022/11/25 13:40:57;;;;;;;;;;;19.10;63.30;;;;;;5043048;28;1271;-68
2022/11/25 13:43:22;;;;;;;;;;;19.10;63.30;;;;;;5027214;28;1331;-69
2022/11/25 13:45:48;;;;;;;;;;;19.10;63.30;;;;;;5041892;28;1496;-68
2022/11/25 13:48:20;;;;;;;;;;;19.10;63.40;;;;;;5037379;28;2035;-68
2022/11/25 13:50:45;;;;;;;;;;;19.10;63.40;;;;;;5028137;28;1900;-68
2022/11/25 13:53:21;;;;;;;;;;;19.10;63.40;;;;;;5044750;28;1898;-69
2022/11/25 13:55:49;;;;;;;;;;;19.10;63.50;;;;;;5023897;28;1586;-67
2022/11/25 13:58:17;;;;;;;;;;;19.00;63.40;;;;;;5039117;28;1426;-67
2022/11/25 14:00:57;;;;;;;;;;;19.00;63.40;;;;;;5024047;28;1370;-67
2022/11/25 14:03:23;;;;;;;;;;;19.10;63.50;;;;;;5040121;28;1345;-68
2022/11/25 14:06:08;;;;;;;;;;;19.00;63.50;;;;;;5038910;28;1256;-68
2022/11/25 14:08:52;;;;;;;;;;;19.00;63.50;;;;;;5036688;28;1284;-68
2022/11/25 14:11:17;;;;;;;;;;;19.00;63.50;;;;;;5037708;28;911;-68
2022/11/25 14:14:01;;;;;;;;;;;19.00;63.50;;;;;;5038911;28;1890;-68
2022/11/25 14:16:42;;;;;;;;;;;19.00;63.50;;;;;;5038327;28;813;-68
2022/11/25 14:19:26;;;;;;;;;;;19.00;63.60;;;;;;5038643;28;1348;-69
2022/11/25 14:22:10;;;;;;;;;;;19.00;63.60;;;;;;5037547;28;1149;-68
2022/11/25 14:24:37;;;;;;;;;;;19.00;63.60;;;;;;5036336;28;853;-67
2022/11/25 14:27:02;;;;;;;;;;;19.00;63.60;;;;;;5036215;28;895;-67
2022/11/25 14:29:31;;;;;;;;;;;19.00;63.60;;;;;;5028492;28;1393;-67
2022/11/25 14:31:57;;;;;;;;;;;19.00;63.60;;;;;;5038335;28;875;-67
2022/11/25 14:34:49;;;;;;;;;;;19.00;63.60;;;;;;5036080;28;1925;-67
2022/11/25 14:37:26;;;;;;;;;;;19.00;63.60;;;;;;5036062;28;1800;-67
2022/11/25 14:40:12;;;;;;;;;;;19.00;63.60;;;;;;5039291;28;863;-67
2022/11/25 14:42:38;;;;;;;;;;;19.00;63.50;;;;;;5019193;28;1261;-67
2022/11/25 14:45:18;;;;;;;;;;;19.00;63.60;;;;;;5015084;28;1505;-67
2022/11/25 14:47:43;;;;;;;;;;;19.00;63.50;;;;;;5021704;28;1865;-67
2022/11/25 14:50:11;;;;;;;;;;;19.00;63.60;;;;;;5038904;28;864;-67
2022/11/25 14:52:36;;;;;;;;;;;19.00;63.50;;;;;;5037295;28;1010;-68
2022/11/25 14:55:03;;;;;;;;;;;19.00;63.50;;;;;;5037868;28;1898;-69
2022/11/25 14:57:29;;;;;;;;;;;19.00;63.50;;;;;;5019404;28;1276;-68